createdAt,value
2023-04-10T00:01:49.632Z,26.50
2023-04-10T00:04:17.751Z,26.81
2023-04-10T00:06:45.873Z,26.73
2023-04-10T00:09:13.756Z,27.02
2023-04-10T00:11:41.688Z,26.85
2023-04-10T00:14:09.513Z,27.95
2023-04-10T00:16:37.481Z,26.64
2023-04-10T00:19:05.396Z,26.86
2023-04-10T00:21:33.268Z,27.04
2023-04-10T00:24:01.112Z,26.62
2023-04-10T00:26:28.995Z,26.68
2023-04-10T00:28:56.951Z,25.78
2023-04-10T00:31:24.864Z,26.34
2023-04-10T00:33:53.172Z,25.81
2023-04-10T00:36:21.548Z,26.07
2023-04-10T00:38:52.671Z,26.30
2023-04-10T00:41:20.538Z,25.54
2023-04-10T00:43:48.604Z,25.58
2023-04-10T00:46:16.528Z,25.64
2023-04-10T00:48:44.840Z,26.26
2023-04-10T00:51:12.874Z,25.28
2023-04-10T00:53:40.905Z,25.72
2023-04-10T00:56:09.157Z,25.61
2023-04-10T00:58:36.986Z,25.07
2023-04-10T01:01:06.291Z,25.43
2023-04-10T01:03:34.982Z,24.87
2023-04-10T01:06:08.708Z,25.56
2023-04-10T01:08:48.990Z,25.64
2023-04-10T01:11:40.130Z,26.04
2023-04-10T01:14:31.966Z,26.38
2023-04-10T01:17:13.625Z,25.62
2023-04-10T01:19:47.536Z,25.34
2023-04-10T01:22:17.738Z,25.41
2023-04-10T01:25:15.642Z,26.19
2023-04-10T01:27:54.188Z,25.38
2023-04-10T01:30:23.440Z,25.64
2023-04-10T01:32:56.089Z,25.75
2023-04-10T01:35:26.109Z,25.48
2023-04-10T01:37:56.578Z,26.33
2023-04-10T01:40:26.652Z,25.34
2023-04-10T01:42:56.972Z,25.61
2023-04-10T01:45:33.679Z,26.28
2023-04-10T01:48:02.230Z,26.45
2023-04-10T01:50:31.975Z,26.41
2023-04-10T01:53:02.372Z,27.01
2023-04-10T01:55:32.437Z,26.47
2023-04-10T01:58:06.433Z,27.29
2023-04-10T02:00:42.930Z,26.66
2023-04-10T02:03:12.307Z,27.26
2023-04-10T02:06:09.409Z,27.73
2023-04-10T02:08:41.408Z,28.11
2023-04-10T02:11:34.473Z,28.44
2023-04-10T02:14:08.165Z,29.99
2023-04-10T02:16:38.689Z,28.81
2023-04-10T02:19:07.049Z,30.56
2023-04-10T02:21:36.224Z,31.33
2023-04-10T02:24:04.479Z,31.78
2023-04-10T02:26:45.114Z,32.00
2023-04-10T02:29:13.179Z,32.63
2023-04-10T02:31:41.965Z,33.82
2023-04-10T02:34:10.664Z,33.31
2023-04-10T02:36:40.026Z,34.52
2023-04-10T02:39:09.219Z,33.59
2023-04-10T02:41:46.605Z,34.43
2023-04-10T02:44:15.889Z,33.99
2023-04-10T02:46:44.600Z,32.76
2023-04-10T02:49:13.747Z,34.60
2023-04-10T02:51:41.610Z,33.72
2023-04-10T02:54:09.494Z,33.71
2023-04-10T02:56:38.685Z,34.94
2023-04-10T02:59:07.026Z,34.18
2023-04-10T03:01:35.920Z,33.78
2023-04-10T03:04:04.420Z,34.30
2023-04-10T03:06:37.912Z,33.75
2023-04-10T03:09:06.045Z,32.81
2023-04-10T03:11:35.752Z,33.62
2023-04-10T03:14:04.741Z,33.05
2023-04-10T03:16:33.104Z,33.44
2023-04-10T03:19:04.685Z,32.54
2023-04-10T03:21:32.962Z,32.56
2023-04-10T03:24:01.103Z,32.88
2023-04-10T03:26:28.999Z,33.30
2023-04-10T03:28:57.307Z,33.05
2023-04-10T03:31:25.453Z,31.85
2023-04-10T03:33:57.000Z,31.69
2023-04-10T03:36:25.167Z,32.23
2023-04-10T03:38:53.072Z,32.18
2023-04-10T03:41:23.160Z,31.90
2023-04-10T03:43:53.200Z,31.15
2023-04-10T03:46:22.731Z,31.29
2023-04-10T03:48:54.058Z,31.31
2023-04-10T03:51:24.717Z,31.53
2023-04-10T03:53:53.095Z,31.26
2023-04-10T03:56:21.477Z,31.38
2023-04-10T03:58:49.724Z,31.08
2023-04-10T04:01:17.954Z,31.73
2023-04-10T04:03:59.301Z,31.06
2023-04-10T04:06:47.051Z,30.47
2023-04-10T04:09:43.763Z,30.50
2023-04-10T04:12:27.780Z,30.96
2023-04-10T04:15:23.844Z,30.61
2023-04-10T04:18:16.752Z,30.88
2023-04-10T04:20:49.388Z,30.56
2023-04-10T04:23:37.358Z,30.92
2023-04-10T04:26:09.407Z,31.24
2023-04-10T04:28:54.037Z,31.76
2023-04-10T04:31:37.187Z,32.79
2023-04-10T04:34:16.479Z,32.84
2023-04-10T04:36:44.331Z,33.22
2023-04-10T04:39:25.971Z,33.61
2023-04-10T04:42:16.716Z,35.19
2023-04-10T04:45:12.954Z,35.78
2023-04-10T04:47:59.878Z,35.36
2023-04-10T04:50:35.300Z,35.57
2023-04-10T04:53:15.858Z,36.03
2023-04-10T04:55:59.932Z,36.09
2023-04-10T04:58:46.365Z,36.96
2023-04-10T05:01:32.660Z,39.11
2023-04-10T05:04:26.310Z,37.94
2023-04-10T05:07:20.405Z,38.74
2023-04-10T05:09:48.332Z,39.08
2023-04-10T05:12:38.647Z,38.92
2023-04-10T05:15:45.442Z,39.25
2023-04-10T05:18:31.787Z,41.24
2023-04-10T05:21:07.642Z,42.44
2023-04-10T05:23:54.218Z,41.45
2023-04-10T05:26:44.974Z,42.19
2023-04-10T05:29:25.746Z,42.44
2023-04-10T05:32:06.381Z,43.46
2023-04-10T05:34:51.925Z,43.09
2023-04-10T05:37:33.572Z,43.43
2023-04-10T05:40:36.823Z,43.65
2023-04-10T05:43:23.490Z,43.51
2023-04-10T05:46:13.765Z,43.58
2023-04-10T05:49:01.921Z,44.02
2023-04-10T05:51:35.521Z,44.27
2023-04-10T05:54:17.625Z,43.54
2023-04-10T05:57:05.690Z,44.56
2023-04-10T05:59:36.195Z,43.96
2023-04-10T06:02:24.909Z,45.84
2023-04-10T06:04:53.217Z,45.97
2023-04-10T06:07:21.607Z,48.46
2023-04-10T06:09:49.448Z,47.92
2023-04-10T06:12:17.459Z,47.89
2023-04-10T06:14:45.441Z,43.90
2023-04-10T06:17:13.419Z,42.67
2023-04-10T06:19:41.435Z,42.80
2023-04-10T06:22:09.397Z,41.90
2023-04-10T06:24:37.213Z,39.66
2023-04-10T06:27:05.294Z,39.83
2023-04-10T06:29:33.155Z,39.01
2023-04-10T06:32:01.443Z,40.21
2023-04-10T06:34:32.313Z,39.83
2023-04-10T06:37:04.374Z,42.00
2023-04-10T06:39:32.941Z,41.19
2023-04-10T06:42:01.317Z,39.45
2023-04-10T06:44:49.681Z,40.54
2023-04-10T06:47:18.307Z,38.46
2023-04-10T06:49:46.167Z,38.75
2023-04-10T06:52:14.133Z,38.50
2023-04-10T06:54:42.218Z,38.10
2023-04-10T06:57:10.316Z,38.41
2023-04-10T06:59:38.573Z,38.88
2023-04-10T07:02:06.908Z,35.96
2023-04-10T07:04:34.907Z,33.70
2023-04-10T07:07:02.994Z,31.08
2023-04-10T07:09:31.117Z,31.83
2023-04-10T07:11:59.000Z,32.28
2023-04-10T07:14:26.879Z,32.29
2023-04-10T07:16:54.767Z,33.98
2023-04-10T07:19:22.658Z,33.34
2023-04-10T07:21:50.618Z,33.19
2023-04-10T07:24:18.758Z,33.15
2023-04-10T07:26:46.641Z,34.94
2023-04-10T07:29:14.515Z,35.90
2023-04-10T07:31:42.706Z,37.50
2023-04-10T07:34:11.719Z,40.15
2023-04-10T07:36:39.758Z,37.59
2023-04-10T07:39:07.683Z,37.16
2023-04-10T07:41:35.929Z,37.16
2023-04-10T07:44:03.847Z,36.93
2023-04-10T07:46:31.799Z,36.50
2023-04-10T07:48:59.646Z,37.12
2023-04-10T07:51:27.752Z,36.90
2023-04-10T07:53:56.322Z,38.28
2023-04-10T07:56:24.228Z,39.67
2023-04-10T07:58:52.427Z,38.89
2023-04-10T08:01:20.955Z,38.60
2023-04-10T08:03:49.014Z,38.66
2023-04-10T08:06:17.014Z,39.59
2023-04-10T08:08:44.932Z,38.87
2023-04-10T08:11:24.955Z,40.71
2023-04-10T08:13:58.090Z,42.14
2023-04-10T08:16:27.681Z,42.33
2023-04-10T08:18:57.450Z,44.46
2023-04-10T08:21:27.347Z,47.94
2023-04-10T08:23:57.205Z,47.13
2023-04-10T08:26:26.466Z,48.26
2023-04-10T08:28:56.588Z,47.01
2023-04-10T08:31:26.061Z,46.60
2023-04-10T08:33:54.456Z,43.85
2023-04-10T08:36:22.586Z,41.90
2023-04-10T08:38:50.472Z,40.23
2023-04-10T08:41:19.833Z,39.79
2023-04-10T08:43:49.699Z,39.81
2023-04-10T08:46:17.835Z,39.85
2023-04-10T08:48:55.715Z,42.38
2023-04-10T08:51:37.080Z,41.60
2023-04-10T08:54:19.398Z,42.20
2023-04-10T08:56:51.406Z,41.12
2023-04-10T08:59:19.474Z,40.37
2023-04-10T09:01:48.951Z,38.77
2023-04-10T09:04:18.000Z,38.94
2023-04-10T09:06:47.319Z,41.58
2023-04-10T09:09:15.394Z,41.82
2023-04-10T09:11:56.553Z,39.87
2023-04-10T09:14:29.349Z,38.04
2023-04-10T09:17:23.064Z,38.28
2023-04-10T09:19:53.610Z,36.63
2023-04-10T09:22:32.931Z,36.40
2023-04-10T09:25:01.943Z,38.18
2023-04-10T09:27:33.026Z,38.38
2023-04-10T09:30:01.895Z,38.38
2023-04-10T09:32:45.147Z,40.18
2023-04-10T09:35:15.113Z,39.05
2023-04-10T09:37:45.716Z,38.05
2023-04-10T09:40:25.112Z,37.63
2023-04-10T09:42:56.126Z,38.40
2023-04-10T09:45:24.141Z,37.30
2023-04-10T09:48:03.364Z,35.50
2023-04-10T09:50:39.291Z,34.60
2023-04-10T09:53:20.483Z,36.65
2023-04-10T09:55:49.930Z,37.74
2023-04-10T09:58:18.962Z,36.60
2023-04-10T10:00:48.564Z,36.06
2023-04-10T10:03:18.396Z,35.48
2023-04-10T10:05:49.132Z,34.81
2023-04-10T10:08:17.686Z,36.22
2023-04-10T10:10:52.000Z,35.66
2023-04-10T10:13:34.102Z,35.08
2023-04-10T10:16:08.565Z,34.30
2023-04-10T10:18:51.659Z,37.84
2023-04-10T10:21:21.046Z,35.44
2023-04-10T10:23:54.997Z,32.64
2023-04-10T10:26:23.729Z,31.32
2023-04-10T10:28:55.211Z,31.15
2023-04-10T10:31:25.879Z,31.23
2023-04-10T10:33:54.290Z,30.93
2023-04-10T10:36:22.571Z,29.54
2023-04-10T10:39:14.685Z,30.02
2023-04-10T10:42:01.698Z,29.84
2023-04-10T10:44:38.259Z,29.72
2023-04-10T10:47:24.895Z,28.46
2023-04-10T10:50:03.772Z,25.42
2023-04-10T10:52:43.205Z,25.03
2023-04-10T10:55:23.931Z,24.69
2023-04-10T10:57:55.299Z,23.81
2023-04-10T11:00:25.251Z,22.40
2023-04-10T11:03:08.506Z,21.43
2023-04-10T11:05:56.456Z,21.25
2023-04-10T11:08:33.844Z,19.41
2023-04-10T11:11:08.116Z,18.55
2023-04-10T11:13:38.997Z,19.03
2023-04-10T11:16:12.449Z,19.15
2023-04-10T11:18:47.302Z,17.52
2023-04-10T11:21:18.159Z,14.99
2023-04-10T11:24:02.258Z,14.74
2023-04-10T11:26:36.138Z,12.53
2023-04-10T11:29:06.258Z,11.00
2023-04-10T11:31:34.464Z,12.95
2023-04-10T11:34:04.614Z,14.42
2023-04-10T11:36:39.541Z,12.62
2023-04-10T11:39:17.920Z,12.42
2023-04-10T11:41:50.945Z,12.37
2023-04-10T11:44:28.167Z,11.37
2023-04-10T11:46:57.978Z,9.51
2023-04-10T11:49:30.064Z,10.20
2023-04-10T11:51:57.896Z,10.21
2023-04-10T11:54:27.759Z,11.10
2023-04-10T11:57:09.582Z,10.09
2023-04-10T11:59:37.474Z,10.60
2023-04-10T12:02:16.637Z,11.16
2023-04-10T12:04:44.960Z,12.47
2023-04-10T12:07:13.171Z,10.40
2023-04-10T12:09:41.044Z,9.71
2023-04-10T12:12:08.995Z,9.84
2023-04-10T12:14:39.706Z,8.91
2023-04-10T12:17:09.566Z,8.64
2023-04-10T12:19:39.262Z,8.47
2023-04-10T12:22:07.736Z,8.08
2023-04-10T12:24:53.292Z,7.78
2023-04-10T12:27:29.245Z,8.48
2023-04-10T12:29:58.682Z,8.40
2023-04-10T12:32:29.593Z,7.87
2023-04-10T12:34:58.745Z,8.04
2023-04-10T12:37:50.682Z,8.08
2023-04-10T12:40:20.704Z,7.84
2023-04-10T12:42:48.634Z,8.37
2023-04-10T12:45:16.512Z,8.27
2023-04-10T12:47:47.178Z,8.26
2023-04-10T12:50:17.483Z,9.39
2023-04-10T12:53:00.931Z,8.90
2023-04-10T12:55:31.659Z,9.00
2023-04-10T12:58:18.070Z,8.82
2023-04-10T13:00:46.975Z,8.61
2023-04-10T13:03:14.976Z,8.19
2023-04-10T13:05:42.945Z,8.95
2023-04-10T13:08:10.790Z,9.61
2023-04-10T13:10:38.749Z,9.09
2023-04-10T13:13:07.281Z,9.02
2023-04-10T13:15:35.229Z,9.25
2023-04-10T13:18:05.297Z,8.18
2023-04-10T13:20:35.943Z,7.62
2023-04-10T13:23:04.382Z,7.64
2023-04-10T13:25:33.880Z,7.57
2023-04-10T13:28:02.184Z,6.67
2023-04-10T13:30:30.052Z,6.26
2023-04-10T13:32:57.941Z,6.84
2023-04-10T13:35:25.881Z,6.80
2023-04-10T13:37:54.298Z,6.52
2023-04-10T13:40:22.251Z,6.55
2023-04-10T13:42:50.232Z,6.49
2023-04-10T13:45:18.172Z,6.06
2023-04-10T13:47:46.178Z,5.52
2023-04-10T13:50:14.018Z,5.68
2023-04-10T13:52:41.891Z,5.85
2023-04-10T13:55:10.052Z,5.79
2023-04-10T13:57:38.622Z,5.82
2023-04-10T14:00:08.896Z,6.11
2023-04-10T14:02:42.573Z,6.10
2023-04-10T14:05:10.869Z,5.71
2023-04-10T14:07:38.751Z,5.64
2023-04-10T14:10:07.524Z,5.59
2023-04-10T14:12:37.057Z,5.90
2023-04-10T14:15:06.315Z,6.34
2023-04-10T14:17:34.789Z,6.13
2023-04-10T14:20:02.698Z,6.01
2023-04-10T14:22:31.709Z,5.81
2023-04-10T14:25:11.698Z,5.89
2023-04-10T14:27:40.702Z,6.86
2023-04-10T14:30:09.911Z,6.44
2023-04-10T14:32:41.209Z,5.87
2023-04-10T14:35:09.558Z,5.45
2023-04-10T14:37:37.683Z,5.59
2023-04-10T14:40:06.492Z,5.98
2023-04-10T14:42:34.600Z,6.11
2023-04-10T14:45:02.416Z,6.06
2023-04-10T14:47:30.313Z,6.07
2023-04-10T14:49:58.257Z,6.40
2023-04-10T14:52:26.153Z,6.19
2023-04-10T14:54:54.074Z,6.81
2023-04-10T14:57:21.973Z,6.53
2023-04-10T14:59:49.884Z,6.64
2023-04-10T15:02:17.739Z,6.95
2023-04-10T15:04:45.610Z,6.33
2023-04-10T15:07:14.275Z,6.18
2023-04-10T15:09:43.164Z,6.56
2023-04-10T15:12:11.066Z,6.35
2023-04-10T15:14:38.937Z,5.91
2023-04-10T15:17:07.028Z,6.52
2023-04-10T15:19:34.982Z,6.30
2023-04-10T15:22:02.849Z,5.85
2023-04-10T15:24:32.533Z,5.44
2023-04-10T15:27:06.849Z,6.08
2023-04-10T15:29:39.029Z,5.90
2023-04-10T15:32:07.031Z,6.33
2023-04-10T15:34:34.976Z,6.71
2023-04-10T15:37:02.794Z,6.43
2023-04-10T15:39:33.551Z,6.50
2023-04-10T15:42:01.832Z,6.30
2023-04-10T15:44:30.226Z,6.41
2023-04-10T15:46:58.204Z,11.18
2023-04-10T15:49:37.068Z,7.36
2023-04-10T15:52:06.985Z,7.02
2023-04-10T15:54:35.060Z,7.26
2023-04-10T15:57:04.159Z,7.12
2023-04-10T15:59:33.486Z,7.46
2023-04-10T16:02:01.872Z,8.80
2023-04-10T16:04:30.757Z,7.67
2023-04-10T16:06:58.984Z,7.66
2023-04-10T16:09:27.417Z,7.14
2023-04-10T16:11:56.310Z,6.49
2023-04-10T16:14:24.273Z,6.36
2023-04-10T16:16:52.267Z,6.37
2023-04-10T16:19:20.286Z,6.80
2023-04-10T16:21:48.143Z,6.90
2023-04-10T16:24:16.434Z,6.93
2023-04-10T16:26:44.244Z,6.23
2023-04-10T16:29:12.222Z,6.33
2023-04-10T16:31:40.091Z,6.40
2023-04-10T16:34:08.011Z,6.10
2023-04-10T16:36:36.022Z,6.40
2023-04-10T16:39:03.936Z,6.18
2023-04-10T16:41:31.792Z,6.60
2023-04-10T16:43:59.784Z,6.66
2023-04-10T16:46:27.663Z,6.62
2023-04-10T16:48:55.734Z,7.40
2023-04-10T16:51:24.652Z,6.97
2023-04-10T16:53:53.335Z,6.97
2023-04-10T16:56:21.542Z,7.67
2023-04-10T16:58:49.514Z,7.03
2023-04-10T17:01:19.769Z,7.05
2023-04-10T17:03:48.723Z,6.46
2023-04-10T17:06:17.219Z,7.02
2023-04-10T17:08:45.599Z,6.98
2023-04-10T17:11:13.736Z,7.09
2023-04-10T17:13:42.005Z,7.00
2023-04-10T17:16:09.977Z,7.57
2023-04-10T17:18:37.885Z,7.53
2023-04-10T17:21:06.026Z,7.26
2023-04-10T17:23:33.860Z,7.00
2023-04-10T17:26:05.652Z,7.17
2023-04-10T17:28:34.132Z,7.07
2023-04-10T17:31:01.962Z,7.39
2023-04-10T17:33:29.924Z,7.88
2023-04-10T17:35:57.888Z,7.59
2023-04-10T17:38:25.778Z,8.01
2023-04-10T17:40:53.682Z,8.08
2023-04-10T17:43:22.176Z,7.34
2023-04-10T17:45:50.451Z,7.28
2023-04-10T17:48:18.591Z,8.48
2023-04-10T17:50:46.581Z,8.32
2023-04-10T17:53:14.405Z,8.04
2023-04-10T17:55:42.304Z,8.39
2023-04-10T17:58:10.169Z,26.02
2023-04-10T18:00:40.787Z,17.04
2023-04-10T18:03:09.453Z,16.66
2023-04-10T18:05:39.682Z,15.99
2023-04-10T18:08:08.661Z,13.72
2023-04-10T18:10:36.554Z,8.91
2023-04-10T18:13:04.733Z,8.67
2023-04-10T18:15:32.601Z,8.93
2023-04-10T18:18:01.466Z,9.70
2023-04-10T18:20:29.335Z,9.75
2023-04-10T18:22:57.218Z,10.28
2023-04-10T18:25:25.296Z,14.01
2023-04-10T18:28:13.156Z,14.24
2023-04-10T18:30:41.364Z,12.37
2023-04-10T18:33:11.349Z,12.34
2023-04-10T18:35:39.811Z,11.79
2023-04-10T18:38:07.703Z,16.93
2023-04-10T18:40:36.863Z,49.39
2023-04-10T18:43:05.179Z,24.83
2023-04-10T18:45:34.425Z,17.80
2023-04-10T18:48:02.894Z,14.01
2023-04-10T18:50:34.066Z,13.96
2023-04-10T18:53:01.960Z,15.02
2023-04-10T18:55:30.012Z,15.83
2023-04-10T18:57:58.339Z,20.77
2023-04-10T19:00:26.227Z,28.70
2023-04-10T19:02:55.119Z,43.58
2023-04-10T19:05:23.190Z,25.47
2023-04-10T19:08:03.030Z,18.88
2023-04-10T19:10:32.492Z,15.00
2023-04-10T19:13:00.451Z,14.89
2023-04-10T19:15:28.363Z,13.94
2023-04-10T19:17:56.456Z,14.88
2023-04-10T19:20:50.006Z,13.73
2023-04-10T19:23:13.035Z,12.47
2023-04-10T19:25:41.466Z,12.47
2023-04-10T19:28:09.375Z,14.64
2023-04-10T19:30:37.241Z,23.85
2023-04-10T19:33:05.286Z,14.00
2023-04-10T19:35:33.330Z,12.65
2023-04-10T19:38:01.526Z,33.01
2023-04-10T19:40:30.538Z,24.50
2023-04-10T19:43:00.410Z,17.39
2023-04-10T19:45:29.401Z,17.37
2023-04-10T19:47:57.682Z,27.22
2023-04-10T19:50:28.377Z,24.62
2023-04-10T19:52:56.466Z,17.71
2023-04-10T19:55:24.411Z,17.51
2023-04-10T19:57:52.288Z,17.10
2023-04-10T20:00:20.498Z,26.09
2023-04-10T20:02:48.523Z,29.59
2023-04-10T20:05:16.737Z,25.63
2023-04-10T20:07:44.716Z,23.89
2023-04-10T20:10:12.649Z,21.41
2023-04-10T20:12:40.659Z,19.94
2023-04-10T20:15:09.318Z,16.95
2023-04-10T20:17:38.646Z,16.32
2023-04-10T20:20:07.166Z,15.95
2023-04-10T20:22:35.004Z,16.37
2023-04-10T20:25:03.084Z,16.44
2023-04-10T20:27:30.956Z,15.84
2023-04-10T20:29:58.805Z,16.13
2023-04-10T20:32:26.976Z,16.64
2023-04-10T20:34:54.840Z,16.39
2023-04-10T20:37:22.855Z,17.33
2023-04-10T20:39:50.800Z,17.42
2023-04-10T20:42:19.706Z,16.80
2023-04-10T20:44:47.637Z,16.88
2023-04-10T20:47:15.943Z,18.37
2023-04-10T20:49:43.985Z,23.36
2023-04-10T20:52:11.979Z,19.81
2023-04-10T20:54:39.861Z,20.54
2023-04-10T20:57:07.835Z,18.83
2023-04-10T20:59:36.664Z,17.89
2023-04-10T21:02:04.764Z,18.00
2023-04-10T21:04:32.974Z,17.34
2023-04-10T21:07:00.978Z,16.46
2023-04-10T21:09:28.810Z,15.38
2023-04-10T21:11:57.697Z,16.03
2023-04-10T21:14:25.879Z,16.70
2023-04-10T21:16:53.848Z,16.76
2023-04-10T21:19:21.751Z,16.37
2023-04-10T21:21:49.887Z,15.97
2023-04-10T21:24:17.792Z,16.95
2023-04-10T21:26:45.753Z,16.80
2023-04-10T21:29:13.662Z,16.16
2023-04-10T21:31:41.562Z,16.10
2023-04-10T21:34:09.397Z,18.28
2023-04-10T21:36:38.654Z,16.46
2023-04-10T21:39:09.529Z,15.40
2023-04-10T21:41:38.291Z,15.05
2023-04-10T21:44:06.711Z,15.19
2023-04-10T21:46:34.635Z,15.35
2023-04-10T21:49:03.098Z,16.16
2023-04-10T21:51:31.209Z,16.42
2023-04-10T21:53:59.112Z,15.85
2023-04-10T21:56:26.962Z,16.35
2023-04-10T21:58:55.222Z,16.93
2023-04-10T22:01:23.454Z,16.96
2023-04-10T22:03:51.397Z,17.81
2023-04-10T22:06:19.368Z,17.35
2023-04-10T22:08:47.290Z,16.88
2023-04-10T22:11:15.674Z,17.98
2023-04-10T22:13:43.532Z,17.77
2023-04-10T22:16:11.553Z,18.68
2023-04-10T22:18:39.469Z,18.33
2023-04-10T22:21:07.540Z,17.75
2023-04-10T22:23:35.443Z,17.63
2023-04-10T22:26:03.502Z,18.07
2023-04-10T22:28:31.375Z,18.36
2023-04-10T22:30:59.310Z,17.71
2023-04-10T22:33:27.228Z,17.98
2023-04-10T22:35:55.223Z,18.46
2023-04-10T22:38:23.118Z,18.17
2023-04-10T22:40:53.972Z,19.28
2023-04-10T22:43:21.964Z,19.05
2023-04-10T22:45:49.831Z,19.17
2023-04-10T22:48:17.714Z,19.63
2023-04-10T22:50:45.712Z,19.58
2023-04-10T22:53:13.803Z,19.16
2023-04-10T22:55:41.900Z,19.51
2023-04-10T22:58:10.402Z,19.14
2023-04-10T23:00:38.306Z,19.88
2023-04-10T23:03:06.293Z,19.63
2023-04-10T23:05:34.213Z,19.40
2023-04-10T23:08:02.162Z,18.96
2023-04-10T23:10:30.069Z,19.00
2023-04-10T23:12:57.946Z,19.34
2023-04-10T23:15:25.811Z,19.35
2023-04-10T23:17:53.681Z,19.39
2023-04-10T23:20:21.955Z,19.02
2023-04-10T23:22:49.784Z,17.99
2023-04-10T23:25:17.669Z,18.18
2023-04-10T23:27:45.591Z,18.89
2023-04-10T23:30:13.509Z,19.44
2023-04-10T23:32:41.534Z,18.44
2023-04-10T23:35:09.593Z,18.00
2023-04-10T23:37:37.541Z,18.75
2023-04-10T23:40:05.876Z,18.40
2023-04-10T23:42:33.767Z,18.87
2023-04-10T23:45:01.630Z,18.63
2023-04-10T23:47:29.507Z,18.67
2023-04-10T23:49:57.463Z,18.35
2023-04-10T23:52:25.417Z,18.97
2023-04-10T23:54:55.906Z,19.16
2023-04-10T23:57:23.905Z,19.27
2023-04-10T23:59:52.307Z,19.38
